Time;durP1;ratioP1;P1;durP2;ratioP2;P2;SDS_P1;SDS_P2;PMS_P1;PMS_P2;Temp;Humidity;BMP_temperature;BMP_pressure;BME280_temperature;BME280_humidity;BME280_pressure;Samples;Min_cycle;Max_cycle;Signal;HPM_P1;HPM_P2
2021/04/27 00:00:54;;;;;;;3.58;1.08;;;;;;;22.80;44.22;97730.28;5058234;28;20299;-61
2021/04/27 00:03:20;;;;;;;9.38;1.23;;;;;;;22.80;44.46;97724.94;5061108;28;20219;-60
2021/04/27 00:05:47;;;;;;;3.28;1.23;;;;;;;22.79;44.32;97722.47;5064899;28;20738;-60
2021/04/27 00:08:13;;;;;;;6.20;1.17;;;;;;;22.80;44.05;97718.75;5071256;28;20264;-60
2021/04/27 00:10:39;;;;;;;2.92;1.33;;;;;;;22.79;43.71;97712.63;5059908;28;20230;-59
2021/04/27 00:13:06;;;;;;;5.13;1.30;;;;;;;22.77;44.40;97714.63;5053843;28;20302;-59
2021/04/27 00:15:33;;;;;;;3.63;1.20;;;;;;;22.78;44.54;97713.63;5066290;28;20286;-57
2021/04/27 00:17:59;;;;;;;1.90;0.77;;;;;;;22.78;44.86;97716.28;5066067;28;20331;-59
2021/04/27 00:20:26;;;;;;;3.47;1.00;;;;;;;22.76;43.92;97707.63;5060965;28;20237;-58
2021/04/27 00:22:53;;;;;;;1.83;1.13;;;;;;;22.76;44.14;97709.50;5063851;28;20317;-52
2021/04/27 00:25:19;;;;;;;2.33;1.30;;;;;;;22.76;43.93;97707.63;5063868;28;20254;-59
2021/04/27 00:27:48;;;;;;;2.70;0.80;;;;;;;22.75;44.25;97702.50;5066820;28;20522;-58
2021/04/27 00:30:17;;;;;;;3.00;0.80;;;;;;;22.76;43.97;97701.50;5068656;28;20198;-58
2021/04/27 00:32:44;;;;;;;3.10;0.90;;;;;;;22.74;43.78;97693.69;5075164;28;20205;-58
2021/04/27 00:35:11;;;;;;;2.85;1.38;;;;;;;22.76;44.65;97698.84;5061013;28;20232;-58
2021/04/27 00:37:38;;;;;;;2.85;1.00;;;;;;;22.74;44.06;97693.69;5068058;28;20214;-61
2021/04/27 00:40:04;;;;;;;4.47;0.93;;;;;;;22.73;44.56;97690.19;5066766;28;20240;-59
2021/04/27 00:42:33;;;;;;;3.72;1.00;;;;;;;22.73;44.89;97689.34;5060084;28;20210;-59
2021/04/27 00:45:00;;;;;;;2.65;1.00;;;;;;;22.72;44.29;97693.03;5067730;28;20596;-59
2021/04/27 00:47:27;;;;;;;1.85;0.80;;;;;;;22.72;43.82;97685.88;5069412;28;20208;-59
2021/04/27 00:49:55;;;;;;;2.67;0.98;;;;;;;22.72;44.37;97679.72;5063994;28;20201;-59
2021/04/27 00:52:22;;;;;;;3.75;1.00;;;;;;;22.72;44.52;97679.72;5066055;28;20251;-59
2021/04/27 00:54:48;;;;;;;3.00;1.25;;;;;;;22.73;44.39;97678.69;5069140;28;20274;-60
2021/04/27 00:57:14;;;;;;;3.13;1.17;;;;;;;22.71;44.45;97678.88;5064704;28;20233;-61
2021/04/27 00:59:40;;;;;;;3.88;1.00;;;;;;;22.71;44.01;97670.06;5067875;28;20318;-60
2021/04/27 01:02:07;;;;;;;5.63;1.20;;;;;;;22.68;44.96;97667.75;5058238;28;20206;-59
2021/04/27 01:04:34;;;;;;;2.90;1.00;;;;;;;22.71;44.57;97686.03;5064014;28;20224;-59
2021/04/27 01:07:00;;;;;;;2.50;0.82;;;;;;;22.70;44.82;97681.75;5068792;28;20230;-55
2021/04/27 01:09:30;;;;;;;3.28;1.05;;;;;;;22.68;44.67;97671.25;5071237;28;20208;-60
2021/04/27 01:12:00;;;;;;;1.77;0.98;;;;;;;22.69;43.96;97675.56;5074055;28;20206;-59
2021/04/27 01:14:32;;;;;;;4.13;1.00;;;;;;;22.68;44.87;97679.25;5056373;28;20310;-60
2021/04/27 01:17:02;;;;;;;2.05;0.80;;;;;;;22.68;44.87;97675.75;5065541;28;20203;-61
2021/04/27 01:19:38;;;;;;;2.13;1.02;;;;;;;22.67;44.94;97674.09;5068034;28;20314;-61
2021/04/27 01:22:08;;;;;;;2.88;0.65;;;;;;;22.67;44.97;97668.78;5057575;28;20206;-62
2021/04/27 01:24:39;;;;;;;1.70;0.90;;;;;;;22.68;45.04;97670.41;5068063;28;20221;-59
2021/04/27 01:27:07;;;;;;;3.72;0.93;;;;;;;22.66;44.42;97667.09;5063511;28;20195;-59
2021/04/27 01:29:35;;;;;;;4.03;0.95;;;;;;;22.66;44.41;97665.25;5064090;28;20195;-59
2021/04/27 01:32:03;;;;;;;1.67;1.02;;;;;;;22.66;44.96;97664.44;5061835;28;20279;-61
2021/04/27 01:34:33;;;;;;;4.40;1.10;;;;;;;22.67;44.25;97666.13;5059681;28;20229;-62
2021/04/27 01:37:00;;;;;;;2.33;1.00;;;;;;;22.65;44.43;97657.44;5061949;28;20620;-62
2021/04/27 01:39:28;;;;;;;3.22;1.00;;;;;;;22.60;45.12;97654.50;5069380;28;20227;-62
2021/04/27 01:41:55;;;;;;;5.25;1.38;;;;;;;22.61;45.19;97656.97;5054435;28;20237;-62
2021/04/27 01:44:23;;;;;;;3.63;1.00;;;;;;;22.62;44.95;97655.16;5064242;28;20304;-62
2021/04/27 01:46:50;;;;;;;4.90;0.80;;;;;;;22.61;44.96;97650.84;5067233;28;20400;-58
2021/04/27 01:49:17;;;;;;;2.45;0.80;;;;;;;22.61;45.04;97656.16;5064068;28;20648;-60
2021/04/27 01:51:44;;;;;;;7.13;1.40;;;;;;;22.62;44.81;97657.84;5066108;28;20209;-59
2021/04/27 01:54:11;;;;;;;1.55;0.85;;;;;;;22.60;44.53;97659.81;5065602;28;20244;-59
2021/04/27 01:56:37;;;;;;;1.77;0.80;;;;;;;22.61;44.60;97649.00;5062736;28;20294;-61
2021/04/27 01:59:04;;;;;;;4.00;1.05;;;;;;;22.60;44.54;97646.50;5066223;28;20242;-61
2021/04/27 02:01:31;;;;;;;5.13;1.05;;;;;;;22.59;45.26;97637.69;5074073;28;20208;-59
2021/04/27 02:03:57;;;;;;;2.90;1.00;;;;;;;22.60;44.63;97643.84;5065617;28;20228;-58
2021/04/27 02:06:24;;;;;;;1.25;0.68;;;;;;;22.58;44.29;97644.03;5068444;28;20214;-62
2021/04/27 02:09:04;;;;;;;4.20;0.93;;;;;;;22.58;45.25;97644.03;5069000;28;20214;-62
2021/04/27 02:11:34;;;;;;;2.50;0.68;;;;;;;22.58;45.25;97635.22;5065550;28;20220;-62
2021/04/27 02:14:01;;;;;;;4.03;1.00;;;;;;;22.58;45.10;97630.69;5064193;28;20219;-61
2021/04/27 02:16:29;;;;;;;2.03;0.85;;;;;;;22.56;45.27;97627.41;5072039;28;20628;-53
2021/04/27 02:18:59;;;;;;;2.83;0.98;;;;;;;22.56;44.62;97632.72;5061338;28;20206;-60
2021/04/27 02:21:26;;;;;;;4.07;1.00;;;;;;;22.56;44.72;97630.06;5067583;28;20230;-60
2021/04/27 02:23:53;;;;;;;1.25;0.80;;;;;;;22.56;45.46;97627.41;5069889;28;20241;-58
2021/04/27 02:26:20;;;;;;;3.03;0.70;;;;;;;22.54;45.02;97621.44;5067913;28;20202;-58
2021/04/27 02:28:46;;;;;;;1.33;0.80;;;;;;;22.54;45.16;97630.25;5066827;28;20788;-61
2021/04/27 02:31:13;;;;;;;2.05;0.77;;;;;;;22.52;44.96;97626.94;5069081;28;20828;-60
2021/04/27 02:33:40;;;;;;;1.77;0.90;;;;;;;22.52;45.24;97626.94;5052414;28;20219;-56
2021/04/27 02:36:08;;;;;;;4.50;1.10;;;;;;;22.51;45.04;97617.28;5060625;28;20207;-60
2021/04/27 02:38:34;;;;;;;3.58;0.82;;;;;;;22.50;45.34;97626.31;5067831;28;20203;-59
2021/04/27 02:41:01;;;;;;;5.10;0.90;;;;;;;22.50;44.88;97620.97;5066764;28;20229;-61
2021/04/27 02:43:28;;;;;;;2.08;0.60;;;;;;;22.50;44.51;97612.16;5069140;28;20241;-61
2021/04/27 02:45:54;;;;;;;2.15;0.90;;;;;;;22.50;45.13;97607.66;5068543;28;20210;-61
2021/04/27 02:48:22;;;;;;;2.10;0.98;;;;;;;22.49;45.08;97613.16;5066848;28;20218;-60
2021/04/27 02:50:50;;;;;;;3.30;0.70;;;;;;;22.51;44.37;97606.63;5068282;28;20334;-58
2021/04/27 02:53:17;;;;;;;3.25;1.15;;;;;;;22.50;44.96;97612.97;5070341;28;20226;-60
2021/04/27 02:55:44;;;;;;;2.28;0.80;;;;;;;22.48;45.51;97604.34;5068131;28;20203;-57
2021/04/27 02:58:12;;;;;;;1.02;0.75;;;;;;;22.49;44.83;97599.84;5068266;28;20195;-60
2021/04/27 03:00:39;;;;;;;5.90;1.00;;;;;;;22.48;44.56;97595.50;5061382;28;20721;-60
2021/04/27 03:03:05;;;;;;;1.50;0.75;;;;;;;22.48;44.60;97599.03;5068473;28;20218;-56
2021/04/27 03:05:32;;;;;;;2.42;0.57;;;;;;;22.48;44.60;97596.34;5070038;28;20218;-59
2021/04/27 03:07:58;;;;;;;2.78;0.65;;;;;;;22.49;45.21;97599.84;5062312;28;20710;-60
2021/04/27 03:10:25;;;;;;;3.13;0.80;;;;;;;22.48;44.44;97598.19;5066086;28;20206;-60
2021/04/27 03:12:51;;;;;;;1.85;0.70;;;;;;;22.48;44.30;97593.69;5076749;28;20206;-60
2021/04/27 03:15:18;;;;;;;1.45;0.60;;;;;;;22.48;45.33;97592.84;5062126;28;20284;-59
2021/04/27 03:17:44;;;;;;;1.85;0.80;;;;;;;22.48;44.55;97601.69;5063622;28;20203;-60
2021/04/27 03:20:14;;;;;;;2.25;0.70;;;;;;;22.48;44.28;97601.69;5061583;28;20249;-58
2021/04/27 03:22:40;;;;;;;1.88;0.68;;;;;;;22.48;45.19;97599.03;5065675;28;20298;-60
2021/04/27 03:25:09;;;;;;;2.13;0.70;;;;;;;22.48;44.33;97604.34;5066612;28;20224;-62
2021/04/27 03:27:36;;;;;;;6.95;0.82;;;;;;;22.50;44.51;97596.19;5069858;28;20285;-61
2021/04/27 03:30:04;;;;;;;1.90;0.60;;;;;;;22.49;44.92;97602.50;5061057;28;20205;-58
2021/04/27 03:32:30;;;;;;;1.63;0.63;;;;;;;22.48;45.25;97600.84;5062109;28;20199;-60
2021/04/27 03:34:57;;;;;;;2.08;0.50;;;;;;;22.49;44.86;97597.19;5061431;28;20226;-59
2021/04/27 03:37:23;;;;;;;0.95;0.60;;;;;;;22.50;44.48;97596.19;5063922;28;20295;-58
2021/04/27 03:39:49;;;;;;;2.70;0.85;;;;;;;22.49;44.67;97595.34;5071055;28;20222;-61
2021/04/27 03:42:16;;;;;;;2.63;0.90;;;;;;;22.49;44.88;97598.00;5066645;28;20206;-61
2021/04/27 03:44:43;;;;;;;1.48;0.68;;;;;;;22.51;45.03;97603.97;5066892;28;20588;-60
2021/04/27 03:47:09;;;;;;;1.70;0.93;;;;;;;22.51;45.44;97603.97;5068000;28;20222;-59
2021/04/27 03:49:35;;;;;;;2.72;0.95;;;;;;;22.54;45.32;97603.59;5078864;28;20205;-61
2021/04/27 03:52:02;;;;;;;3.10;0.93;;;;;;;22.57;44.83;97606.94;5069514;28;20297;-61
2021/04/27 03:54:29;;;;;;;1.42;0.60;;;;;;;22.58;45.23;97604.06;5064368;28;20223;-60
2021/04/27 03:56:55;;;;;;;2.30;0.70;;;;;;;22.60;44.74;97612.72;5058729;28;20195;-59
2021/04/27 03:59:21;;;;;;;1.90;0.77;;;;;;;22.60;44.98;97603.88;5066707;28;20257;-60
2021/04/27 04:01:48;;;;;;;1.90;0.80;;;;;;;22.62;45.34;97601.88;5070579;28;20211;-59
2021/04/27 04:04:14;;;;;;;2.35;0.90;;;;;;;22.62;44.86;97599.22;5055190;28;20302;-60
2021/04/27 04:06:40;;;;;;;1.08;0.55;;;;;;;22.63;45.05;97604.38;5065373;28;20229;-58
2021/04/27 04:09:08;;;;;;;1.65;0.60;;;;;;;22.64;45.03;97599.88;5066278;28;20799;-58
2021/04/27 04:11:35;;;;;;;1.20;0.60;;;;;;;22.65;45.02;97606.84;5066369;28;20221;-61
2021/04/27 04:14:01;;;;;;;1.27;0.70;;;;;;;22.66;45.23;97605.84;5065536;28;20226;-60
2021/04/27 04:16:28;;;;;;;0.85;0.70;;;;;;;22.65;45.08;97601.50;5063927;28;20245;-60
2021/04/27 04:18:55;;;;;;;1.90;0.77;;;;;;;22.65;45.85;97599.69;5066418;28;20198;-57
2021/04/27 04:21:23;;;;;;;1.77;0.60;;;;;;;22.66;45.62;97605.84;5070987;28;20260;-59
2021/04/27 04:23:49;;;;;;;1.48;0.80;;;;;;;22.66;45.51;97601.31;5070574;28;20299;-61
2021/04/27 04:26:15;;;;;;;2.53;0.70;;;;;;;22.66;45.65;97606.66;5065436;28;20206;-60
2021/04/27 04:28:41;;;;;;;1.48;0.80;;;;;;;22.67;45.86;97610.16;5064989;28;20225;-59
2021/04/27 04:31:08;;;;;;;2.42;0.75;;;;;;;22.67;45.77;97610.97;5072124;28;20202;-58
2021/04/27 04:33:34;;;;;;;1.75;0.60;;;;;;;22.67;46.02;97607.50;5058064;28;20731;-60
2021/04/27 04:36:01;;;;;;;1.58;0.70;;;;;;;22.67;45.50;97607.50;5058224;28;20209;-59
2021/04/27 04:38:27;;;;;;;1.08;0.52;;;;;;;22.67;45.95;97607.50;5065926;28;20210;-58
2021/04/27 04:40:54;;;;;;;1.38;0.77;;;;;;;22.68;45.83;97609.13;5067826;28;20671;-58
2021/04/27 04:43:20;;;;;;;2.13;0.70;;;;;;;22.66;45.31;97601.31;5065095;28;20741;-59
2021/04/27 04:45:47;;;;;;;1.88;0.50;;;;;;;22.68;45.83;97617.13;5063511;28;20215;-59
2021/04/27 04:48:13;;;;;;;1.65;0.80;;;;;;;22.68;45.48;97614.47;5065342;28;20580;-56
2021/04/27 04:50:41;;;;;;;1.52;0.70;;;;;;;22.68;45.30;97611.78;5061165;28;20218;-60
2021/04/27 04:53:08;;;;;;;2.67;0.90;;;;;;;22.68;46.32;97609.13;5069570;28;20226;-58
2021/04/27 04:55:34;;;;;;;4.22;0.60;;;;;;;22.67;46.08;97608.31;5064528;28;21005;-59
2021/04/27 04:58:00;;;;;;;3.28;0.75;;;;;;;22.67;45.19;97610.16;5065959;28;20202;-58
2021/04/27 05:00:27;;;;;;;1.75;0.77;;;;;;;22.66;45.23;97606.66;5060207;28;20342;-62
2021/04/27 05:02:53;;;;;;;2.45;0.60;;;;;;;22.67;46.08;97604.84;5065942;28;20289;-58
2021/04/27 05:05:19;;;;;;;7.25;0.57;;;;;;;22.69;45.34;97611.63;5066079;28;20317;-58
2021/04/27 05:07:46;;;;;;;2.42;0.75;;;;;;;22.71;45.86;97616.78;5058315;28;20225;-59
2021/04/27 05:10:15;;;;;;;2.15;0.65;;;;;;;22.72;45.61;97613.09;5064955;28;20307;-60
2021/04/27 05:12:42;;;;;;;1.42;0.50;;;;;;;22.71;45.34;97614.91;5063287;28;20248;-59
2021/04/27 05:15:09;;;;;;;2.28;0.80;;;;;;;22.72;45.59;97610.44;5064187;28;20224;-60
2021/04/27 05:17:36;;;;;;;1.08;0.50;;;;;;;22.70;45.36;97617.78;5059037;28;20354;-58
2021/04/27 05:20:04;;;;;;;3.50;0.63;;;;;;;22.70;44.74;97613.28;5064180;28;20228;-60
2021/04/27 05:22:31;;;;;;;2.00;0.80;;;;;;;22.59;45.21;97623.56;5064832;28;20215;-59
2021/04/27 05:24:57;;;;;;;1.92;0.98;;;;;;;22.58;46.42;97628.03;5057855;28;20228;-59
2021/04/27 05:27:24;;;;;;;25.40;2.38;;;;;;;22.65;46.69;97630.81;5062183;28;20213;-59
2021/04/27 05:29:51;;;;;;;24.88;2.38;;;;;;;22.69;46.32;97626.78;5060596;28;20191;-60
2021/04/27 05:32:17;;;;;;;36.25;3.97;;;;;;;22.73;46.39;97618.25;5066734;28;20302;-59
2021/04/27 05:34:43;;;;;;;27.88;3.55;;;;;;;22.77;46.63;97625.88;5064286;28;20897;-62
2021/04/27 05:37:09;;;;;;;15.77;2.60;;;;;;;22.80;45.83;97618.34;5060705;28;20438;-59
2021/04/27 05:39:36;;;;;;;23.00;2.30;;;;;;;22.83;45.22;97615.31;5061883;28;20687;-57
2021/04/27 05:42:03;;;;;;;15.40;2.00;;;;;;;22.88;44.93;97615.59;5069909;28;20234;-62
2021/04/27 05:44:31;;;;;;;10.65;2.20;;;;;;;22.91;44.00;97615.25;5065446;28;20238;-63
2021/04/27 05:46:57;;;;;;;12.63;1.90;;;;;;;22.95;44.94;97620.19;5071032;28;20293;-62
2021/04/27 05:49:23;;;;;;;15.30;2.25;;;;;;;23.00;44.46;97615.97;5064837;28;20289;-53
2021/04/27 05:51:49;;;;;;;8.90;1.45;;;;;;;23.00;43.65;97613.31;5065358;28;20202;-58
2021/04/27 05:54:15;;;;;;;10.52;1.80;;;;;;;23.02;43.91;97610.47;5064852;28;20222;-60
2021/04/27 05:56:42;;;;;;;11.73;2.15;;;;;;;23.05;44.45;97610.91;5067479;28;20207;-59
2021/04/27 05:59:08;;;;;;;16.02;1.92;;;;;;;23.10;44.92;97607.72;5067599;28;20207;-57
2021/04/27 06:01:35;;;;;;;9.85;1.58;;;;;;;23.09;44.95;97606.06;5064315;28;20228;-60
2021/04/27 06:04:01;;;;;;;14.98;1.65;;;;;;;23.12;44.94;97594.22;5065155;28;20250;-61
2021/04/27 06:06:27;;;;;;;7.95;1.45;;;;;;;23.15;44.41;97605.34;5069309;28;20262;-54
2021/04/27 06:08:53;;;;;;;12.65;1.75;;;;;;;23.18;44.00;97604.97;5064660;28;20206;-56
2021/04/27 06:11:19;;;;;;;10.93;1.83;;;;;;;23.15;45.87;97594.66;5067362;28;20226;-56
2021/04/27 06:13:45;;;;;;;17.20;2.53;;;;;;;23.13;45.66;97595.84;5068221;28;20295;-61
2021/04/27 06:16:12;;;;;;;13.57;2.00;;;;;;;23.15;45.99;97594.66;5064201;28;20221;-55
2021/04/27 06:18:39;;;;;;;12.82;2.03;;;;;;;23.19;46.12;97595.13;5066097;28;20568;-59
2021/04/27 06:21:06;;;;;;;13.70;2.30;;;;;;;23.19;46.72;97595.13;5067396;28;20226;-61
2021/04/27 06:23:33;;;;;;;15.85;2.10;;;;;;;23.23;46.33;97594.56;5065712;28;20286;-60
2021/04/27 06:25:59;;;;;;;12.23;2.05;;;;;;;23.26;46.49;97594.19;5060553;28;20564;-60
2021/04/27 06:28:25;;;;;;;10.32;1.80;;;;;;;23.27;47.19;97587.84;5065369;28;20203;-59
2021/04/27 06:30:51;;;;;;;16.67;2.20;;;;;;;23.30;46.65;97588.47;5064876;28;20203;-59
2021/04/27 06:33:17;;;;;;;10.80;1.67;;;;;;;23.28;47.33;97589.50;5064809;28;20241;-60
2021/04/27 06:35:44;;;;;;;8.55;1.70;;;;;;;23.30;45.60;97596.47;5065088;28;20804;-62
2021/04/27 06:38:11;;;;;;;11.10;1.92;;;;;;;23.31;46.37;97592.81;5068346;28;20214;-58
2021/04/27 06:40:37;;;;;;;8.50;1.80;;;;;;;23.28;46.25;97594.84;5065783;28;20226;-62
2021/04/27 06:43:03;;;;;;;7.10;1.40;;;;;;;23.28;46.59;97589.50;5074517;28;20567;-62
2021/04/27 06:45:30;;;;;;;10.18;1.58;;;;;;;23.28;45.35;97592.16;5070179;28;20199;-62
2021/04/27 06:47:56;;;;;;;9.77;1.40;;;;;;;23.29;45.93;97590.31;5071273;28;20566;-62
2021/04/27 06:50:22;;;;;;;6.57;1.17;;;;;;;23.28;45.21;97594.84;5074554;28;20198;-60
2021/04/27 06:52:51;;;;;;;5.15;1.10;;;;;;;23.26;45.48;97596.88;5071614;28;20294;-62
2021/04/27 06:55:17;;;;;;;5.18;1.25;;;;;;;23.25;44.04;97592.53;5066627;28;20205;-62
2021/04/27 06:57:43;;;;;;;14.30;1.55;;;;;;;23.26;45.79;97593.34;5067999;28;20207;-62
2021/04/27 07:00:10;;;;;;;11.70;1.67;;;;;;;23.24;46.02;97598.88;5063229;28;20233;-60
2021/04/27 07:02:36;;;;;;;5.30;1.38;;;;;;;23.21;44.36;97595.75;5061744;28;20202;-62
2021/04/27 07:05:03;;;;;;;6.82;1.63;;;;;;;23.20;44.16;97586.94;5066340;28;20707;-61
2021/04/27 07:07:30;;;;;;;7.53;1.60;;;;;;;23.19;44.46;97595.94;5067385;28;20218;-62
2021/04/27 07:09:57;;;;;;;7.80;1.60;;;;;;;23.18;44.91;97585.47;5067222;28;20285;-61
2021/04/27 07:12:23;;;;;;;4.72;1.33;;;;;;;23.18;45.33;97582.78;5064527;28;20664;-62
2021/04/27 07:14:50;;;;;;;9.05;1.30;;;;;;;23.16;44.52;97584.81;5074543;28;20226;-63
2021/04/27 07:17:16;;;;;;;6.80;1.20;;;;;;;23.13;44.79;97586.00;5064999;28;20237;-58
2021/04/27 07:19:42;;;;;;;7.53;1.70;;;;;;;23.12;44.87;97583.56;5070671;28;20806;-58
2021/04/27 07:22:09;;;;;;;3.70;1.13;;;;;;;23.07;45.13;97581.44;5063921;28;20691;-65
2021/04/27 07:24:35;;;;;;;7.43;1.60;;;;;;;23.08;44.58;97585.75;5065673;28;20238;-63
2021/04/27 07:27:03;;;;;;;11.68;1.77;;;;;;;23.07;44.14;97587.59;5072429;28;20194;-59
2021/04/27 07:29:29;;;;;;;12.50;1.63;;;;;;;23.09;43.35;97584.75;5056153;28;20211;-57
2021/04/27 07:31:55;;;;;;;6.85;1.50;;;;;;;23.08;42.60;97594.59;5055747;28;20207;-54
2021/04/27 07:34:22;;;;;;;12.88;2.38;;;;;;;23.09;42.39;97576.75;5064563;28;20229;-56
2021/04/27 07:36:48;;;;;;;7.78;1.50;;;;;;;23.10;42.53;97583.75;5075908;28;20214;-57
2021/04/27 07:39:14;;;;;;;5.10;1.05;;;;;;;23.11;43.09;97582.72;5065840;28;20701;-60
2021/04/27 07:41:41;;;;;;;5.93;1.48;;;;;;;23.12;42.44;97583.56;5063949;28;20608;-60
2021/04/27 07:44:09;;;;;;;9.85;1.25;;;;;;;23.11;43.52;97585.38;5064858;28;20261;-56
2021/04/27 07:46:35;;;;;;;4.80;1.40;;;;;;;23.11;42.93;97580.03;5070180;28;20720;-61
2021/04/27 07:49:02;;;;;;;14.35;1.63;;;;;;;23.13;43.09;97585.19;5070429;28;20454;-57
2021/04/27 07:51:28;;;;;;;3.58;1.35;;;;;;;23.13;44.10;97577.19;5067668;28;20261;-59
2021/04/27 07:53:55;;;;;;;3.90;1.13;;;;;;;23.15;43.28;97573.34;5064326;28;20273;-56
2021/04/27 07:56:21;;;;;;;10.13;1.73;;;;;;;23.20;44.19;97576.28;5064604;28;20263;-54
2021/04/27 07:58:47;;;;;;;3.60;1.00;;;;;;;23.16;43.14;97580.31;5060817;28;20214;-61
2021/04/27 08:01:14;;;;;;;12.48;1.17;;;;;;;23.18;44.63;97582.78;5057460;28;20217;-61
2021/04/27 08:03:40;;;;;;;4.43;1.02;;;;;;;23.17;43.75;97573.97;5071360;28;20256;-55
2021/04/27 08:06:06;;;;;;;3.60;1.13;;;;;;;23.19;43.92;97571.94;5054237;28;20225;-60
2021/04/27 08:08:33;;;;;;;3.28;1.02;;;;;;;23.21;43.46;97582.41;5065371;28;20218;-61
2021/04/27 08:10:59;;;;;;;5.40;1.00;;;;;;;23.19;44.37;97571.94;5064921;28;20196;-60
2021/04/27 08:13:25;;;;;;;6.53;1.08;;;;;;;23.19;44.28;97584.47;5063447;28;20767;-58
2021/04/27 08:15:51;;;;;;;3.95;1.00;;;;;;;23.21;44.72;97571.75;5061280;28;20215;-59
2021/04/27 08:18:18;;;;;;;7.03;1.10;;;;;;;23.23;44.29;97575.91;5073343;28;20202;-58
2021/04/27 08:20:45;;;;;;;6.18;1.67;;;;;;;23.25;44.39;97575.72;5064140;28;20313;-62
2021/04/27 08:23:11;;;;;;;5.50;1.08;;;;;;;23.27;44.14;97571.84;5067236;28;20250;-58
2021/04/27 08:25:37;;;;;;;10.60;1.27;;;;;;;23.28;44.75;97573.50;5063832;28;20418;-58
2021/04/27 08:28:04;;;;;;;2.38;0.88;;;;;;;23.30;44.57;97575.13;5065652;28;20569;-59
2021/04/27 08:30:32;;;;;;;6.47;1.05;;;;;;;23.32;44.27;97576.63;5066992;28;20217;-56
2021/04/27 08:32:59;;;;;;;3.30;0.90;;;;;;;23.31;44.69;97574.94;5065384;28;20199;-56
2021/04/27 08:35:26;;;;;;;2.45;1.00;;;;;;;23.30;45.25;97572.47;5068541;28;20354;-58
2021/04/27 08:37:52;;;;;;;4.70;1.10;;;;;;;23.34;44.55;97568.44;5073166;28;20207;-60
2021/04/27 08:40:19;;;;;;;1.90;0.82;;;;;;;23.34;44.09;97571.09;5064585;28;20239;-58
2021/04/27 08:42:47;;;;;;;1.60;1.00;;;;;;;23.33;44.17;97569.44;5065316;28;20202;-58
2021/04/27 08:45:14;;;;;;;2.05;1.00;;;;;;;23.36;44.75;97571.72;5061958;28;20254;-60
2021/04/27 08:47:41;;;;;;;6.63;1.20;;;;;;;23.38;44.82;97573.22;5059495;28;20199;-60
2021/04/27 08:50:10;;;;;;;1.88;1.00;;;;;;;23.38;44.38;97565.22;5062416;28;20289;-58
2021/04/27 08:52:37;;;;;;;5.97;1.23;;;;;;;23.38;43.85;97567.88;5064646;28;20300;-54
2021/04/27 08:55:04;;;;;;;2.20;0.90;;;;;;;23.36;44.06;97559.22;5068909;28;20326;-59
2021/04/27 08:57:33;;;;;;;2.40;0.90;;;;;;;23.37;44.48;97558.22;5064131;28;20198;-58
2021/04/27 08:59:59;;;;;;;3.10;1.08;;;;;;;23.36;44.98;97561.06;5055287;28;20323;-55
2021/04/27 09:02:29;;;;;;;3.65;0.98;;;;;;;23.36;44.34;97558.41;5054756;28;20245;-60
2021/04/27 09:04:56;;;;;;;4.93;0.95;;;;;;;23.36;44.98;97548.53;5062994;28;20227;-56
2021/04/27 09:07:23;;;;;;;2.45;0.88;;;;;;;23.38;44.10;97556.38;5064173;28;20819;-55
2021/04/27 09:09:54;;;;;;;4.13;0.90;;;;;;;23.37;45.07;97544.88;5074189;28;20568;-59
2021/04/27 09:12:22;;;;;;;2.45;0.88;;;;;;;23.36;44.13;97547.72;5069866;28;20257;-61
2021/04/27 09:14:49;;;;;;;2.05;0.85;;;;;;;23.36;44.12;97547.72;5067862;28;20237;-59
2021/04/27 09:17:15;;;;;;;2.45;0.95;;;;;;;23.35;44.48;97535.41;5063059;28;20259;-54
2021/04/27 09:19:44;;;;;;;3.20;0.70;;;;;;;23.35;44.00;97532.72;5062619;28;20286;-55
2021/04/27 09:22:16;;;;;;;3.55;1.00;;;;;;;23.29;44.53;97534.31;5063602;28;20210;-59
2021/04/27 09:24:46;;;;;;;12.00;1.08;;;;;;;23.28;44.99;97541.50;5069618;28;20244;-57
2021/04/27 09:27:25;;;;;;;5.15;1.10;;;;;;;23.32;44.65;97535.78;5061508;28;20215;-58
2021/04/27 09:29:51;;;;;;;4.15;1.08;;;;;;;23.35;44.96;97541.56;5061984;28;20203;-55
2021/04/27 09:32:31;;;;;;;8.32;1.25;;;;;;;23.34;44.51;97539.09;5058877;28;20206;-59
2021/04/27 09:34:57;;;;;;;2.80;0.88;;;;;;;23.32;43.99;97535.78;5066104;28;20232;-51
2021/04/27 09:37:23;;;;;;;2.00;0.95;;;;;;;23.28;44.62;97530.00;5062161;28;20317;-56
2021/04/27 09:39:51;;;;;;;7.45;1.48;;;;;;;23.27;44.04;97523.03;5062589;28;20287;-57
2021/04/27 09:42:19;;;;;;;2.95;0.90;;;;;;;23.24;44.53;97534.88;5062978;28;20206;-57
2021/04/27 09:44:49;;;;;;;5.28;1.13;;;;;;;23.21;44.95;97524.56;5062209;28;20230;-58
2021/04/27 09:47:19;;;;;;;5.25;0.77;;;;;;;23.20;44.95;97522.94;5069586;28;20194;-59
2021/04/27 09:49:56;;;;;;;2.53;0.80;;;;;;;23.18;44.90;97518.81;5064172;28;20218;-58
2021/04/27 09:52:23;;;;;;;2.85;0.70;;;;;;;23.12;44.58;97514.25;5073042;28;20293;-56
2021/04/27 09:55:09;;;;;;;2.20;0.90;;;;;;;23.12;44.34;97511.56;5067259;28;20294;-57
2021/04/27 09:57:38;;;;;;;1.77;1.00;;;;;;;23.08;44.32;97511.94;5057578;28;20231;-58
2021/04/27 10:00:29;;;;;;;2.15;0.77;;;;;;;23.05;44.06;97508.78;5063306;28;20314;-58
2021/04/27 10:02:58;;;;;;;5.90;1.10;;;;;;;23.03;44.03;97500.13;5066755;28;20312;-60
2021/04/27 10:05:25;;;;;;;8.85;1.20;;;;;;;23.00;44.89;97503.16;5062524;28;20202;-59
2021/04/27 10:07:51;;;;;;;7.07;1.40;;;;;;;22.98;45.70;97503.38;5068862;28;21025;-60
2021/04/27 10:10:19;;;;;;;9.05;1.52;;;;;;;23.00;46.02;97500.50;5066317;28;20290;-56
2021/04/27 10:12:47;;;;;;;5.53;1.50;;;;;;;22.98;45.54;97498.06;5056221;28;20206;-59
2021/04/27 10:15:15;;;;;;;8.40;1.30;;;;;;;22.99;46.00;97493.53;5055843;28;20233;-58
2021/04/27 10:17:41;;;;;;;4.43;1.08;;;;;;;23.01;45.49;97487.00;5064378;28;20692;-63
2021/04/27 10:20:12;;;;;;;8.02;1.30;;;;;;;23.04;45.46;97491.13;5077107;28;20857;-58
2021/04/27 10:22:41;;;;;;;6.05;1.30;;;;;;;23.05;45.48;97484.81;5068827;28;20203;-58
2021/04/27 10:25:11;;;;;;;4.28;0.90;;;;;;;23.08;45.43;97485.28;5067869;28;20244;-59
2021/04/27 10:27:38;;;;;;;6.90;1.25;;;;;;;23.12;45.29;97483.06;5064395;28;20230;-61
2021/04/27 10:30:39;;;;;;;4.20;1.10;;;;;;;23.11;45.26;97478.72;5059555;28;20661;-58
2021/04/27 10:33:11;;;;;;;5.43;1.20;;;;;;;23.12;45.16;97471.59;5058989;28;20488;-58
2021/04/27 10:35:39;;;;;;;8.88;1.23;;;;;;;23.14;45.41;97461.56;5063954;28;20236;-60
2021/04/27 10:38:07;;;;;;;6.03;1.15;;;;;;;23.09;44.53;97460.25;5063632;28;20242;-58
2021/04/27 10:40:46;;;;;;;4.90;1.30;;;;;;;23.06;43.96;97463.28;5057459;28;20225;-57
2021/04/27 10:43:34;;;;;;;3.97;1.20;;;;;;;23.05;43.81;97455.47;5066807;28;20605;-59
2021/04/27 10:46:06;;;;;;;6.70;1.63;;;;;;;23.04;44.74;97448.50;5057294;28;20584;-57
2021/04/27 10:48:33;;;;;;;3.38;1.45;;;;;;;23.02;43.68;97447.84;5069050;28;20190;-59
2021/04/27 10:51:36;;;;;;;6.78;1.50;;;;;;;22.92;41.42;97450.81;5064070;28;20302;-58
2021/04/27 10:54:05;;;;;;;11.23;2.70;;;;;;;22.88;39.80;97439.72;5055096;28;20238;-62
2021/04/27 10:56:37;;;;;;;7.47;2.20;;;;;;;22.97;41.57;97442.28;5053830;28;20306;-59
2021/04/27 10:59:09;;;;;;;5.80;1.73;;;;;;;23.01;42.06;97435.53;5064167;28;20884;-57
2021/04/27 11:01:40;;;;;;;8.93;2.40;;;;;;;23.05;42.66;97423.50;5054435;28;20646;-59
2021/04/27 11:04:07;;;;;;;14.05;2.03;;;;;;;23.05;42.50;97428.81;5055000;28;20218;-58
2021/04/27 11:06:33;;;;;;;10.38;2.50;;;;;;;23.00;42.48;97425.88;5065991;28;20290;-58
2021/04/27 11:09:10;;;;;;;11.80;2.20;;;;;;;23.01;42.17;97422.22;5068684;28;20297;-60
2021/04/27 11:11:37;;;;;;;8.98;2.03;;;;;;;22.98;41.72;97422.56;5064540;28;20605;-59
2021/04/27 11:14:19;;;;;;;5.75;1.63;;;;;;;22.96;41.61;97420.09;5058393;28;20231;-61
2021/04/27 11:16:53;;;;;;;8.48;1.98;;;;;;;22.93;42.08;97409.81;5063357;28;20229;-61
2021/04/27 11:19:42;;;;;;;14.60;2.45;;;;;;;22.90;41.07;97411.03;5076714;28;20918;-55
2021/04/27 11:22:16;;;;;;;10.18;2.50;;;;;;;22.87;41.07;97406.06;5058980;28;20290;-61
2021/04/27 11:24:42;;;;;;;21.98;2.47;;;;;;;22.90;42.09;97413.69;5049077;28;20730;-56
2021/04/27 11:27:21;;;;;;;5.10;2.22;;;;;;;22.91;41.60;97409.19;5064411;28;20322;-59
2021/04/27 11:29:54;;;;;;;7.70;1.77;;;;;;;22.92;43.02;97405.50;5066971;28;20555;-55
2021/04/27 11:32:21;;;;;;;9.20;1.65;;;;;;;22.95;42.73;97407.81;5062148;28;20198;-60
2021/04/27 11:34:50;;;;;;;7.63;1.90;;;;;;;22.96;43.33;97403.28;5058308;28;20241;-58